Time;durP1;ratioP1;P1;durP2;ratioP2;P2;SDS_P1;SDS_P2;PMS_P1;PMS_P2;Temp;Humidity;BMP_temperature;BMP_pressure;BME280_temperature;BME280_humidity;BME280_pressure;Samples;Min_cycle;Max_cycle;Signal;HPM_P1;HPM_P2
2021/04/25 04:47:34;;;;;;;10.05;4.13;;;;;;;;;;6248761;22;884247;-81
2021/04/25 04:50:00;;;;;;;10.95;4.07;;;;;;;;;;6290486;22;20453;-82
2021/04/25 04:52:26;;;;;;;11.68;3.75;;;;;;;;;;6317697;22;20030;-81
2021/04/25 04:54:51;;;;;;;7.72;3.60;;;;;;;;;;6289844;22;20371;-82
2021/04/25 04:57:17;;;;;;;11.93;3.72;;;;;;;;;;6289744;22;20326;-82
2021/04/25 04:59:43;;;;;;;5.60;3.13;;;;;;;;;;6285176;22;20003;-81
2021/04/25 05:02:09;;;;;;;7.32;3.60;;;;;;;;;;6260085;22;20098;-82
2021/04/25 05:04:34;;;;;;;7.95;3.58;;;;;;;;;;6257498;22;20017;-82
2021/04/25 05:07:00;;;;;;;5.55;2.90;;;;;;;;;;6285566;22;20006;-82
2021/04/25 05:09:26;;;;;;;7.28;3.53;;;;;;;;;;6286105;22;20003;-82
2021/04/25 05:11:52;;;;;;;7.22;3.03;;;;;;;;;;6258801;22;20313;-82
2021/04/25 05:14:17;;;;;;;6.72;3.38;;;;;;;;;;6249727;23;20087;-82
2021/04/25 05:16:43;;;;;;;7.55;3.47;;;;;;;;;;6228030;23;20015;-82
2021/04/25 05:19:09;;;;;;;7.18;2.78;;;;;;;;;;6250745;23;20083;-81
2021/04/25 05:23:53;;;;;;;7.80;3.40;;;;;;;;;;5058786;28;20397;-82
2021/04/25 05:26:18;;;;;;;5.18;3.30;;;;;;;;;;5032998;28;20455;-82
2021/04/25 05:28:44;;;;;;;10.07;4.10;;;;;;;;;;5040746;28;20100;-82
2021/04/25 05:31:10;;;;;;;6.43;3.33;;;;;;;;;;5048433;28;20104;-82
2021/04/25 05:33:35;;;;;;;6.07;3.03;;;;;;;;;;5039610;28;20025;-82
2021/04/25 05:36:01;;;;;;;6.90;3.83;;;;;;;;;;5051156;28;20100;-83
2021/04/25 05:38:27;;;;;;;14.57;4.85;;;;;;;;;;5038478;28;20085;-80
2021/04/25 05:40:52;;;;;;;11.52;4.60;;;;;;;;;;5036649;28;20031;-81
2021/04/25 05:43:18;;;;;;;8.57;4.28;;;;;;;;;;5049348;28;20067;-81
2021/04/25 05:48:03;;;;;;;8.68;4.20;;;;;;;;;;5086754;28;20758;-82
2021/04/25 05:52:47;;;;;;;8.75;4.05;;;;;;;;;;5065877;28;20369;-82
2021/04/25 05:55:13;;;;;;;10.80;5.60;;;;;;;;;;5047880;28;20397;-82
2021/04/25 05:57:39;;;;;;;8.07;3.90;;;;;;;;;;5039913;28;20033;-82
2021/04/25 06:00:06;;;;;;;13.93;5.00;;;;;;;;;;5040966;28;20048;-83
2021/04/25 06:02:31;;;;;;;9.52;4.88;;;;;;;;;;5048896;28;20434;-82
2021/04/25 06:04:57;;;;;;;18.58;5.25;;;;;;;;;;5031382;28;20052;-83
2021/04/25 06:07:23;;;;;;;9.18;4.28;;;;;;;;;;5040002;28;20006;-82
2021/04/25 06:09:49;;;;;;;7.70;4.20;;;;;;;;;;5053667;28;20018;-83
2021/04/25 06:14:33;;;;;;;8.60;4.80;;;;;;;;;;5130517;27;20344;-83
2021/04/25 06:16:58;;;;;;;10.05;4.95;;;;;;;;;;5105568;28;20025;-82
2021/04/25 06:19:24;;;;;;;11.07;4.90;;;;;;;;;;5120575;28;20040;-81
2021/04/25 06:21:50;;;;;;;9.27;4.45;;;;;;;;;;5114132;28;20060;-83
2021/04/25 06:24:15;;;;;;;12.38;4.40;;;;;;;;;;5106050;28;20120;-82
2021/04/25 06:26:41;;;;;;;8.10;4.35;;;;;;;;;;5109312;28;20028;-83
2021/04/25 06:29:07;;;;;;;9.45;4.15;;;;;;;;;;5093943;28;20093;-83
2021/04/25 06:31:34;;;;;;;10.27;4.15;;;;;;;;;;5111977;28;20083;-82
2021/04/25 06:34:00;;;;;;;7.90;4.35;;;;;;;;;;5104743;28;20024;-83
2021/04/25 06:36:25;;;;;;;10.00;4.45;;;;;;;;;;5113880;28;20063;-83
2021/04/25 06:38:51;;;;;;;13.10;4.03;;;;;;;;;;5114733;28;20036;-83
2021/04/25 06:41:17;;;;;;;7.45;3.88;;;;;;;;;;5104800;28;20072;-82
2021/04/25 06:43:42;;;;;;;7.07;4.25;;;;;;;;;;5119840;28;20107;-83
2021/04/25 06:46:08;;;;;;;10.52;3.95;;;;;;;;;;5100896;28;20020;-83
2021/04/25 06:48:34;;;;;;;12.45;4.10;;;;;;;;;;5113908;28;20096;-84
2021/04/25 06:50:59;;;;;;;10.05;4.20;;;;;;;;;;5100262;28;20420;-83
2021/04/25 06:53:25;;;;;;;7.93;3.63;;;;;;;;;;5111854;28;20087;-82
2021/04/25 06:55:51;;;;;;;9.38;4.60;;;;;;;;;;5092482;28;20024;-82
2021/04/25 06:58:16;;;;;;;9.77;4.68;;;;;;;;;;5087115;28;20032;-81
2021/04/25 07:00:42;;;;;;;18.67;8.93;;;;;;;;;;5086626;28;20035;-82
2021/04/25 07:03:08;;;;;;;17.42;7.93;;;;;;;;;;5087853;28;20031;-82
2021/04/25 07:05:33;;;;;;;10.02;4.50;;;;;;;;;;5091839;28;20108;-81
2021/04/25 07:07:59;;;;;;;10.63;5.35;;;;;;;;;;5088309;28;20098;-82
2021/04/25 07:10:25;;;;;;;9.38;4.70;;;;;;;;;;5090241;28;20027;-81
2021/04/25 07:12:51;;;;;;;14.25;5.45;;;;;;;;;;5088415;28;20081;-82
2021/04/25 07:15:17;;;;;;;11.75;5.05;;;;;;;;;;5081324;28;20028;-82
2021/04/25 07:17:43;;;;;;;14.60;4.55;;;;;;;;;;5090251;28;20066;-82
2021/04/25 07:20:09;;;;;;;7.65;3.83;;;;;;;;;;5085439;28;20291;-81
2021/04/25 07:22:35;;;;;;;9.15;4.90;;;;;;;;;;5083556;28;20012;-81
2021/04/25 07:25:01;;;;;;;8.98;3.63;;;;;;;;;;5070743;28;20029;-82
2021/04/25 07:27:26;;;;;;;7.22;3.42;;;;;;;;;;5076485;28;20024;-81
2021/04/25 07:29:52;;;;;;;7.93;3.72;;;;;;;;;;5067272;28;20502;-82
2021/04/25 07:32:18;;;;;;;7.18;3.95;;;;;;;;;;5075041;28;20024;-81
2021/04/25 07:34:44;;;;;;;9.98;3.80;;;;;;;;;;5067946;28;20009;-82
2021/04/25 07:37:10;;;;;;;10.13;4.32;;;;;;;;;;5072757;28;20539;-81
2021/04/25 07:39:36;;;;;;;7.53;4.53;;;;;;;;;;5073684;28;20020;-82
2021/04/25 07:42:03;;;;;;;7.75;4.30;;;;;;;;;;5067266;28;20013;-81
2021/04/25 07:44:29;;;;;;;8.90;3.90;;;;;;;;;;5075070;28;20074;-81
2021/04/25 07:46:55;;;;;;;11.45;5.50;;;;;;;;;;5064729;28;20632;-82
2021/04/25 07:49:21;;;;;;;7.18;4.47;;;;;;;;;;5074333;28;20021;-81
2021/04/25 07:51:47;;;;;;;10.13;4.85;;;;;;;;;;5073501;28;20024;-81
2021/04/25 07:54:13;;;;;;;8.38;4.13;;;;;;;;;;5071049;28;20016;-81
2021/04/25 07:56:39;;;;;;;11.55;4.28;;;;;;;;;;5071068;28;20051;-81
2021/04/25 07:59:04;;;;;;;7.78;3.90;;;;;;;;;;5063227;28;20032;-81
2021/04/25 08:01:30;;;;;;;9.55;3.83;;;;;;;;;;5072002;28;20024;-82
2021/04/25 08:03:59;;;;;;;8.55;4.18;;;;;;;;;;5067313;28;20115;-82
2021/04/25 08:06:26;;;;;;;10.02;4.50;;;;;;;;;;5068213;28;20032;-81
2021/04/25 08:08:52;;;;;;;13.65;5.60;;;;;;;;;;5073624;28;20039;-81
2021/04/25 08:11:18;;;;;;;11.52;4.30;;;;;;;;;;5090173;28;20107;-81
2021/04/25 08:13:43;;;;;;;9.52;4.18;;;;;;;;;;5079713;28;20024;-81
2021/04/25 08:16:09;;;;;;;7.38;4.20;;;;;;;;;;5075010;28;20037;-81
2021/04/25 08:18:35;;;;;;;8.00;4.15;;;;;;;;;;5069903;28;20016;-82
2021/04/25 08:21:00;;;;;;;8.23;4.72;;;;;;;;;;5067632;28;20077;-82
2021/04/25 08:23:26;;;;;;;8.73;3.92;;;;;;;;;;5067637;28;20023;-81
2021/04/25 08:25:52;;;;;;;12.43;4.38;;;;;;;;;;5063718;28;20032;-82
2021/04/25 08:28:18;;;;;;;9.43;4.68;;;;;;;;;;5068583;28;20112;-82
2021/04/25 08:30:44;;;;;;;9.60;4.22;;;;;;;;;;5071797;28;20026;-81
2021/04/25 08:33:10;;;;;;;10.48;5.22;;;;;;;;;;5069799;28;20132;-81
2021/04/25 08:35:35;;;;;;;10.15;5.00;;;;;;;;;;5069879;28;20039;-81
2021/04/25 08:38:01;;;;;;;11.77;4.38;;;;;;;;;;5067088;28;20370;-82
2021/04/25 08:40:27;;;;;;;12.40;4.90;;;;;;;;;;5063912;28;20035;-81
2021/04/25 08:42:53;;;;;;;11.20;4.47;;;;;;;;;;5073155;28;20040;-81
2021/04/25 08:45:18;;;;;;;8.63;4.05;;;;;;;;;;5072501;28;20020;-82
2021/04/25 08:47:50;;;;;;;8.02;3.97;;;;;;;;;;5067900;28;20027;-82
2021/04/25 08:50:16;;;;;;;10.52;4.00;;;;;;;;;;5063413;28;20083;-81
2021/04/25 08:52:42;;;;;;;9.45;4.20;;;;;;;;;;5065031;28;20052;-82
2021/04/25 08:55:09;;;;;;;7.25;3.90;;;;;;;;;;5068934;28;20048;-82
2021/04/25 08:57:34;;;;;;;8.20;4.43;;;;;;;;;;5076835;28;20019;-82
2021/04/25 09:00:00;;;;;;;7.72;3.13;;;;;;;;;;5074939;28;20437;-82
2021/04/25 09:02:28;;;;;;;9.07;4.20;;;;;;;;;;5087609;28;20028;-81
2021/04/25 09:04:55;;;;;;;7.60;4.00;;;;;;;;;;5077308;28;20052;-81
2021/04/25 09:07:23;;;;;;;13.90;4.53;;;;;;;;;;5069763;28;20070;-82
2021/04/25 09:09:51;;;;;;;9.00;4.22;;;;;;;;;;5067022;28;20036;-81
2021/04/25 09:12:38;;;;;;;7.43;3.83;;;;;;;;;;5066550;28;20039;-81
2021/04/25 09:15:06;;;;;;;6.57;3.33;;;;;;;;;;5070549;28;20488;-82
2021/04/25 09:17:51;;;;;;;7.07;3.40;;;;;;;;;;5067927;28;20029;-82
2021/04/25 09:20:17;;;;;;;9.43;3.35;;;;;;;;;;5065382;28;20441;-82
2021/04/25 09:22:52;;;;;;;8.82;3.67;;;;;;;;;;5066476;28;20043;-82
2021/04/25 09:25:19;;;;;;;14.73;4.35;;;;;;;;;;5060907;28;20096;-82
2021/04/25 09:27:46;;;;;;;9.43;3.45;;;;;;;;;;5064866;28;20039;-82
2021/04/25 09:30:12;;;;;;;8.50;4.38;;;;;;;;;;5061921;28;20013;-82
2021/04/25 09:32:38;;;;;;;7.15;4.35;;;;;;;;;;5065455;28;20042;-81
2021/04/25 09:35:12;;;;;;;6.53;3.45;;;;;;;;;;5066743;28;20477;-81
2021/04/25 09:37:41;;;;;;;6.78;4.18;;;;;;;;;;5063029;28;20024;-81
2021/04/25 09:40:07;;;;;;;7.47;3.60;;;;;;;;;;5063907;28;20719;-82
2021/04/25 09:42:53;;;;;;;14.15;4.90;;;;;;;;;;5066708;28;20017;-81
2021/04/25 09:45:23;;;;;;;9.35;4.60;;;;;;;;;;5067796;28;20029;-81
2021/04/25 09:47:48;;;;;;;8.27;4.13;;;;;;;;;;5070438;28;20024;-81
2021/04/25 09:50:17;;;;;;;9.20;3.92;;;;;;;;;;5067654;28;20020;-81
2021/04/25 09:52:44;;;;;;;7.55;4.00;;;;;;;;;;5067593;28;20381;-81
2021/04/25 09:55:14;;;;;;;8.45;3.38;;;;;;;;;;5070018;28;20051;-81
2021/04/25 09:57:40;;;;;;;7.27;3.43;;;;;;;;;;5058569;28;20104;-81
2021/04/25 10:00:06;;;;;;;6.75;3.72;;;;;;;;;;5058696;28;20032;-81
2021/04/25 10:02:32;;;;;;;7.80;4.20;;;;;;;;;;5059639;28;20039;-81
2021/04/25 10:05:05;;;;;;;6.35;3.50;;;;;;;;;;5062673;28;20032;-82
2021/04/25 10:07:34;;;;;;;12.65;4.90;;;;;;;;;;5060600;28;20061;-81
2021/04/25 10:10:10;;;;;;;5.75;3.58;;;;;;;;;;5062733;28;20047;-81
2021/04/25 10:12:36;;;;;;;6.25;4.00;;;;;;;;;;5060513;28;20024;-81
2021/04/25 10:15:02;;;;;;;7.22;3.88;;;;;;;;;;5063466;28;20047;-81
2021/04/25 10:17:28;;;;;;;8.45;3.88;;;;;;;;;;5070573;28;20095;-81
2021/04/25 10:19:54;;;;;;;7.50;3.72;;;;;;;;;;5059396;28;20041;-82
2021/04/25 10:22:20;;;;;;;8.63;4.00;;;;;;;;;;5060445;28;20027;-82
2021/04/25 10:24:45;;;;;;;9.68;3.33;;;;;;;;;;5057748;28;20061;-81
2021/04/25 10:27:12;;;;;;;9.70;4.07;;;;;;;;;;5061845;28;20028;-82
2021/04/25 10:29:38;;;;;;;10.85;4.28;;;;;;;;;;5063226;28;20029;-82
2021/04/25 10:32:05;;;;;;;7.35;3.38;;;;;;;;;;5063195;28;20446;-81
2021/04/25 10:34:31;;;;;;;7.13;3.65;;;;;;;;;;5069099;28;20016;-83
2021/04/25 10:36:58;;;;;;;7.78;3.40;;;;;;;;;;5068654;28;20039;-83
2021/04/25 10:39:49;;;;;;;10.10;3.85;;;;;;;;;;5068466;28;20020;-82
2021/04/25 10:42:15;;;;;;;;;;;;;;;;;;5063932;28;20027;-81
2021/04/25 10:45:06;;;;;;;8.80;4.00;;;;;;;;;;5066452;28;19909;-82
2021/04/25 10:47:36;;;;;;;6.07;3.20;;;;;;;;;;5064465;28;20025;-81
2021/04/25 10:50:17;;;;;;;11.07;3.80;;;;;;;;;;5059076;28;20542;-82
2021/04/25 10:52:45;;;;;;;6.35;3.45;;;;;;;;;;5063900;28;20052;-81
2021/04/25 10:55:19;;;;;;;5.68;3.15;;;;;;;;;;5069907;28;20020;-81
2021/04/25 10:57:59;;;;;;;8.38;3.17;;;;;;;;;;5070886;28;20038;-81
2021/04/25 11:00:31;;;;;;;7.30;4.13;;;;;;;;;;5068734;28;20032;-81
2021/04/25 11:03:17;;;;;;;12.93;3.97;;;;;;;;;;5075511;28;20013;-81
2021/04/25 11:05:44;;;;;;;8.05;3.63;;;;;;;;;;5074691;28;20016;-81
2021/04/25 11:08:12;;;;;;;5.38;2.90;;;;;;;;;;5081159;28;20028;-80
2021/04/25 11:10:48;;;;;;;7.72;3.47;;;;;;;;;;5083628;28;20091;-82
2021/04/25 11:13:51;;;;;;;5.78;3.90;;;;;;;;;;5071587;28;20021;-81
2021/04/25 11:16:17;;;;;;;6.53;3.70;;;;;;;;;;5089944;28;20062;-81
2021/04/25 11:18:43;;;;;;;6.25;3.50;;;;;;;;;;5077523;28;20032;-82
2021/04/25 11:21:34;;;;;;;7.95;3.63;;;;;;;;;;5077842;28;20084;-82
2021/04/25 11:24:03;;;;;;;9.18;3.75;;;;;;;;;;5058700;28;20120;-81
2021/04/25 11:26:41;;;;;;;6.10;2.83;;;;;;;;;;5075764;28;20126;-81
2021/04/25 11:29:08;;;;;;;8.20;3.30;;;;;;;;;;5068227;28;20528;-81
2021/04/25 11:31:50;;;;;;;7.97;3.22;;;;;;;;;;5078994;28;20111;-81
2021/04/25 11:34:28;;;;;;;12.20;4.43;;;;;;;;;;5069350;28;20094;-81
2021/04/25 11:37:01;;;;;;;7.63;3.28;;;;;;;;;;5067551;28;20480;-81
2021/04/25 11:39:27;;;;;;;12.27;3.90;;;;;;;;;;5064225;28;21324;-81
2021/04/25 11:41:53;;;;;;;6.45;3.35;;;;;;;;;;5070318;28;20024;-81
2021/04/25 11:44:26;;;;;;;6.60;2.90;;;;;;;;;;5075445;28;20025;-81
2021/04/25 11:46:52;;;;;;;8.45;3.28;;;;;;;;;;5064863;28;20090;-82
2021/04/25 11:49:28;;;;;;;8.05;2.97;;;;;;;;;;5080148;28;20028;-85
2021/04/25 11:52:05;;;;;;;7.05;3.28;;;;;;;;;;5078703;28;20021;-86
2021/04/25 12:00:42;;;;;;;7.47;2.67;;;;;;;;;;5020420;28;20667;-86
2021/04/25 12:03:07;;;;;;;5.93;2.85;;;;;;;;;;5073912;28;20115;-86
2021/04/25 12:05:33;;;;;;;6.32;3.33;;;;;;;;;;5073971;28;20029;-86
2021/04/25 12:08:03;;;;;;;6.25;2.33;;;;;;;;;;5072103;28;20110;-85
2021/04/25 12:10:41;;;;;;;5.90;2.65;;;;;;;;;;5074723;28;20095;-86
2021/04/25 12:13:08;;;;;;;6.70;2.47;;;;;;;;;;5073638;28;20028;-87
2021/04/25 12:15:54;;;;;;;6.15;2.58;;;;;;;;;;5076395;28;20031;-86
2021/04/25 12:18:27;;;;;;;5.43;2.40;;;;;;;;;;5073321;28;20013;-85
2021/04/25 12:20:58;;;;;;;6.80;3.25;;;;;;;;;;5086455;28;20104;-86
2021/04/25 12:23:28;;;;;;;4.68;3.05;;;;;;;;;;5073696;28;20062;-86
2021/04/25 12:25:55;;;;;;;5.05;2.85;;;;;;;;;;5071917;28;20021;-86
2021/04/25 12:28:34;;;;;;;8.93;2.97;;;;;;;;;;5075439;28;20020;-85
2021/04/25 12:31:00;;;;;;;5.95;3.00;;;;;;;;;;5071707;28;20023;-86
2021/04/25 12:33:35;;;;;;;5.78;2.47;;;;;;;;;;5082681;28;20099;-85
2021/04/25 12:36:04;;;;;;;5.80;2.78;;;;;;;;;;5071007;28;20013;-85
2021/04/25 12:38:29;;;;;;;8.77;2.78;;;;;;;;;;5079768;28;20557;-86
2021/04/25 12:41:04;;;;;;;6.05;3.17;;;;;;;;;;5075294;28;20016;-86
2021/04/25 12:43:35;;;;;;;7.10;3.08;;;;;;;;;;5074159;28;20020;-86
2021/04/25 12:46:11;;;;;;;6.95;2.97;;;;;;;;;;5090308;28;20036;-86
2021/04/25 12:48:38;;;;;;;7.68;2.63;;;;;;;;;;5072496;28;20013;-86
2021/04/25 12:51:04;;;;;;;5.30;2.70;;;;;;;;;;5073232;28;20013;-85
2021/04/25 12:53:30;;;;;;;5.20;2.60;;;;;;;;;;5079694;28;20046;-85
2021/04/25 12:55:56;;;;;;;7.45;3.17;;;;;;;;;;5072941;28;20023;-86
2021/04/25 12:58:22;;;;;;;3.95;1.98;;;;;;;;;;5077533;28;20111;-85
2021/04/25 13:00:48;;;;;;;5.22;2.78;;;;;;;;;;5075820;28;20135;-85
2021/04/25 13:03:30;;;;;;;7.05;2.60;;;;;;;;;;5077546;28;20024;-85
2021/04/25 13:05:56;;;;;;;7.28;3.00;;;;;;;;;;5079657;28;20016;-86
2021/04/25 13:08:31;;;;;;;4.10;2.13;;;;;;;;;;5082682;28;20020;-85
2021/04/25 13:10:57;;;;;;;6.78;2.55;;;;;;;;;;5077758;28;20021;-86
2021/04/25 13:13:23;;;;;;;7.90;2.35;;;;;;;;;;5072410;28;20035;-85
2021/04/25 13:15:49;;;;;;;6.93;2.75;;;;;;;;;;5072728;28;20055;-85
2021/04/25 13:18:15;;;;;;;8.18;3.03;;;;;;;;;;5074187;28;20021;-85
2021/04/25 13:20:45;;;;;;;10.52;2.50;;;;;;;;;;5082322;28;19993;-84
2021/04/25 13:23:22;;;;;;;5.60;2.67;;;;;;;;;;5078657;28;20051;-86
2021/04/25 13:25:50;;;;;;;7.20;2.53;;;;;;;;;;5079662;28;20058;-86
2021/04/25 13:28:17;;;;;;;5.30;2.60;;;;;;;;;;5078066;28;20027;-85
2021/04/25 13:30:44;;;;;;;4.43;1.95;;;;;;;;;;5082906;28;20035;-86
2021/04/25 13:33:14;;;;;;;5.47;2.60;;;;;;;;;;5080150;28;20025;-86
2021/04/25 13:35:40;;;;;;;4.38;1.98;;;;;;;;;;5071496;28;20020;-86
2021/04/25 13:38:06;;;;;;;4.43;2.15;;;;;;;;;;5073234;28;20035;-86
2021/04/25 13:40:32;;;;;;;4.50;1.98;;;;;;;;;;5073308;28;20099;-86
2021/04/25 13:42:58;;;;;;;7.80;2.30;;;;;;;;;;5078887;28;20034;-82
2021/04/25 13:45:24;;;;;;;6.72;2.92;;;;;;;;;;5077307;28;20088;-82
2021/04/25 13:47:50;;;;;;;7.30;2.67;;;;;;;;;;5074617;28;20020;-82
2021/04/25 13:50:16;;;;;;;7.70;3.05;;;;;;;;;;5071647;28;20024;-81
2021/04/25 13:52:41;;;;;;;7.60;2.50;;;;;;;;;;5076490;28;20054;-81
2021/04/25 13:55:08;;;;;;;5.43;2.50;;;;;;;;;;5077822;28;20056;-80
2021/04/25 13:57:33;;;;;;;5.97;2.83;;;;;;;;;;5072917;28;20028;-80
2021/04/25 14:00:01;;;;;;;5.65;2.67;;;;;;;;;;5069589;28;20423;-80
2021/04/25 14:02:27;;;;;;;6.22;2.63;;;;;;;;;;5070806;28;20020;-81
2021/04/25 14:04:53;;;;;;;6.75;2.40;;;;;;;;;;5073125;28;20415;-81
2021/04/25 14:07:18;;;;;;;6.03;2.58;;;;;;;;;;5070016;28;20023;-81
2021/04/25 14:09:44;;;;;;;7.97;2.75;;;;;;;;;;5069042;28;20473;-81
2021/04/25 14:12:10;;;;;;;6.05;2.67;;;;;;;;;;5065719;28;20025;-83
2021/04/25 14:14:36;;;;;;;4.93;2.33;;;;;;;;;;5066537;28;20021;-81
2021/04/25 14:17:02;;;;;;;5.32;2.70;;;;;;;;;;5077699;28;20025;-83
2021/04/25 14:19:27;;;;;;;7.38;2.55;;;;;;;;;;5085788;28;20494;-83
2021/04/25 14:21:54;;;;;;;3.40;2.00;;;;;;;;;;5086090;28;20036;-83
2021/04/25 14:24:20;;;;;;;5.63;2.55;;;;;;;;;;5078024;28;20047;-82
2021/04/25 14:26:49;;;;;;;4.45;2.47;;;;;;;;;;5075183;28;20035;-82
2021/04/25 14:29:15;;;;;;;5.15;2.25;;;;;;;;;;5078242;28;20021;-82
2021/04/25 14:31:41;;;;;;;5.47;2.40;;;;;;;;;;5088194;28;20031;-82
2021/04/25 14:34:06;;;;;;;6.60;1.85;;;;;;;;;;5086486;28;20024;-82
2021/04/25 14:36:32;;;;;;;5.03;2.08;;;;;;;;;;5094154;28;20058;-82
2021/04/25 14:38:58;;;;;;;5.57;2.45;;;;;;;;;;5092019;28;20016;-82
2021/04/25 14:41:23;;;;;;;5.32;2.42;;;;;;;;;;5071849;28;20708;-82
2021/04/25 14:43:49;;;;;;;4.05;1.90;;;;;;;;;;5087831;28;20472;-82
2021/04/25 14:46:15;;;;;;;4.68;2.00;;;;;;;;;;5085192;28;20021;-82
2021/04/25 14:48:42;;;;;;;3.83;1.80;;;;;;;;;;5091807;28;20024;-82
2021/04/25 14:51:07;;;;;;;6.35;2.35;;;;;;;;;;5093134;28;20022;-82
2021/04/25 14:53:33;;;;;;;4.55;1.80;;;;;;;;;;5092608;28;20039;-82
2021/04/25 14:55:59;;;;;;;6.22;2.22;;;;;;;;;;5090955;28;20092;-82
2021/04/25 14:58:24;;;;;;;4.50;2.10;;;;;;;;;;5090347;28;20025;-82
2021/04/25 15:00:50;;;;;;;5.65;2.50;;;;;;;;;;5086915;28;20418;-82
2021/04/25 15:03:16;;;;;;;6.53;2.38;;;;;;;;;;5092216;28;20707;-82
2021/04/25 15:05:42;;;;;;;4.30;2.00;;;;;;;;;;5090084;28;20818;-82
2021/04/25 15:08:07;;;;;;;6.88;2.58;;;;;;;;;;5078977;28;20054;-82
2021/04/25 15:10:33;;;;;;;6.65;2.63;;;;;;;;;;5079225;28;20079;-82
2021/04/25 15:13:01;;;;;;;4.95;2.30;;;;;;;;;;5091283;28;20241;-82
2021/04/25 15:15:29;;;;;;;5.03;2.20;;;;;;;;;;5090445;28;20032;-82
2021/04/25 15:17:55;;;;;;;6.03;2.13;;;;;;;;;;5094527;28;20026;-82
2021/04/25 15:20:21;;;;;;;6.07;2.50;;;;;;;;;;5093764;28;20016;-82
2021/04/25 15:22:47;;;;;;;4.70;2.25;;;;;;;;;;5087814;28;20012;-82
2021/04/25 15:25:13;;;;;;;5.13;1.88;;;;;;;;;;5089208;28;20046;-82
2021/04/25 15:27:39;;;;;;;6.80;2.83;;;;;;;;;;5089998;28;20446;-82
2021/04/25 15:30:06;;;;;;;4.82;2.10;;;;;;;;;;5084430;28;20023;-82
2021/04/25 15:32:32;;;;;;;4.72;1.98;;;;;;;;;;5091383;28;20430;-82
2021/04/25 15:34:58;;;;;;;4.28;2.15;;;;;;;;;;5086560;28;20097;-82
2021/04/25 15:37:26;;;;;;;4.15;2.30;;;;;;;;;;5085449;28;20084;-82
2021/04/25 15:39:52;;;;;;;7.38;2.47;;;;;;;;;;5077517;28;20039;-82
2021/04/25 15:42:19;;;;;;;6.03;2.60;;;;;;;;;;5076188;28;20042;-82
2021/04/25 15:44:46;;;;;;;4.03;2.05;;;;;;;;;;5090430;28;20020;-82
2021/04/25 15:47:11;;;;;;;6.13;2.50;;;;;;;;;;5081104;28;20042;-82
2021/04/25 15:49:37;;;;;;;4.53;1.92;;;;;;;;;;5090997;28;20024;-82
2021/04/25 15:52:03;;;;;;;4.20;1.90;;;;;;;;;;5087006;28;20472;-82
2021/04/25 15:54:29;;;;;;;3.95;2.00;;;;;;;;;;5091008;28;20114;-82
2021/04/25 15:56:55;;;;;;;5.65;2.30;;;;;;;;;;5091278;28;20030;-82
2021/04/25 15:59:23;;;;;;;5.88;1.70;;;;;;;;;;5091063;28;20489;-82
2021/04/25 16:01:49;;;;;;;4.25;1.80;;;;;;;;;;5086300;28;20035;-82
2021/04/25 16:04:15;;;;;;;6.25;2.08;;;;;;;;;;5094339;28;20102;-83
2021/04/25 16:06:40;;;;;;;2.88;1.70;;;;;;;;;;5087572;28;20519;-82
2021/04/25 16:09:06;;;;;;;16.65;2.83;;;;;;;;;;5089333;28;20022;-83
2021/04/25 16:11:32;;;;;;;5.72;2.15;;;;;;;;;;5084299;28;20047;-83
2021/04/25 16:13:57;;;;;;;5.97;1.92;;;;;;;;;;5085684;28;20032;-83
2021/04/25 16:16:23;;;;;;;4.68;2.08;;;;;;;;;;5095119;28;20438;-80
2021/04/25 16:18:49;;;;;;;4.22;2.10;;;;;;;;;;5071988;28;20102;-82
2021/04/25 16:21:14;;;;;;;5.93;2.30;;;;;;;;;;5096987;28;20026;-82
2021/04/25 16:23:40;;;;;;;5.60;2.05;;;;;;;;;;5080408;28;20021;-83
2021/04/25 16:26:06;;;;;;;5.13;2.88;;;;;;;;;;5080974;28;20502;-83
2021/04/25 16:28:31;;;;;;;4.95;2.60;;;;;;;;;;5079323;28;20031;-83
2021/04/25 16:30:57;;;;;;;4.75;2.30;;;;;;;;;;5082025;28;20020;-82
2021/04/25 16:33:23;;;;;;;5.43;2.35;;;;;;;;;;5082773;28;20023;-84
2021/04/25 16:35:49;;;;;;;5.72;3.03;;;;;;;;;;5066574;28;20111;-85
2021/04/25 16:38:15;;;;;;;5.32;2.05;;;;;;;;;;5067381;28;20108;-87
2021/04/25 16:40:41;;;;;;;5.72;2.30;;;;;;;;;;5068144;28;20023;-85
2021/04/25 16:43:08;;;;;;;4.28;2.15;;;;;;;;;;5062885;28;20040;-85
2021/04/25 16:45:33;;;;;;;7.07;2.42;;;;;;;;;;5065460;28;20028;-84
2021/04/25 16:47:59;;;;;;;7.47;2.50;;;;;;;;;;5070154;28;20429;-84
2021/04/25 16:50:25;;;;;;;3.67;2.00;;;;;;;;;;5068838;28;20388;-84
2021/04/25 16:52:51;;;;;;;4.57;2.35;;;;;;;;;;5067139;28;20035;-84
2021/04/25 16:55:17;;;;;;;4.32;1.80;;;;;;;;;;5069635;28;20366;-84
2021/04/25 16:57:43;;;;;;;4.60;1.88;;;;;;;;;;5068882;28;20023;-84
2021/04/25 17:00:10;;;;;;;6.55;1.80;;;;;;;;;;5063162;28;20454;-85
2021/04/25 17:02:37;;;;;;;5.25;2.10;;;;;;;;;;5065132;28;20385;-82
2021/04/25 17:05:04;;;;;;;4.60;1.65;;;;;;;;;;5068330;28;20028;-85
2021/04/25 17:07:30;;;;;;;4.97;2.10;;;;;;;;;;5064444;28;20056;-82
2021/04/25 17:09:55;;;;;;;4.22;2.25;;;;;;;;;;5064109;28;20105;-82
2021/04/25 17:12:21;;;;;;;6.82;2.05;;;;;;;;;;5070075;28;20104;-82
2021/04/25 17:14:47;;;;;;;4.93;2.50;;;;;;;;;;5068201;28;20028;-83
2021/04/25 17:17:13;;;;;;;4.78;2.28;;;;;;;;;;5069012;28;20017;-82
2021/04/25 17:19:38;;;;;;;6.43;2.17;;;;;;;;;;5068165;28;20092;-82
2021/04/25 17:22:04;;;;;;;6.53;2.42;;;;;;;;;;5066306;28;20468;-83
2021/04/25 17:24:29;;;;;;;5.85;2.00;;;;;;;;;;5066467;28;20043;-82
2021/04/25 17:26:55;;;;;;;5.25;2.00;;;;;;;;;;5067250;28;20099;-80
2021/04/25 17:29:21;;;;;;;6.85;2.00;;;;;;;;;;5071062;28;20017;-81
2021/04/25 17:31:47;;;;;;;4.50;1.83;;;;;;;;;;5068897;28;20055;-81
2021/04/25 17:34:12;;;;;;;7.40;2.30;;;;;;;;;;5062899;28;20024;-80
2021/04/25 17:36:38;;;;;;;6.20;2.25;;;;;;;;;;5068507;28;20024;-81
2021/04/25 17:39:04;;;;;;;3.78;1.90;;;;;;;;;;5063903;28;20017;-81
2021/04/25 17:41:30;;;;;;;4.53;2.60;;;;;;;;;;5065502;28;20087;-81
2021/04/25 17:43:56;;;;;;;4.72;1.92;;;;;;;;;;5063774;28;20039;-80
2021/04/25 17:46:22;;;;;;;5.40;1.70;;;;;;;;;;5066768;28;20242;-81
2021/04/25 17:48:47;;;;;;;4.93;1.63;;;;;;;;;;5067135;28;20112;-81
2021/04/25 17:51:13;;;;;;;6.15;2.45;;;;;;;;;;5064906;28;20027;-81
2021/04/25 17:53:41;;;;;;;7.60;2.58;;;;;;;;;;5067086;28;20043;-81
2021/04/25 17:56:07;;;;;;;7.55;2.45;;;;;;;;;;5075244;28;20038;-81
2021/04/25 17:58:33;;;;;;;5.53;1.80;;;;;;;;;;5072008;28;20021;-81
2021/04/25 18:00:59;;;;;;;3.63;1.70;;;;;;;;;;5067793;28;20024;-82
2021/04/25 18:03:24;;;;;;;4.60;1.65;;;;;;;;;;5068175;28;20036;-81
2021/04/25 18:05:50;;;;;;;5.28;1.70;;;;;;;;;;5063941;28;20027;-82
2021/04/25 18:08:16;;;;;;;5.35;1.92;;;;;;;;;;5066303;28;20091;-81
2021/04/25 18:10:42;;;;;;;6.82;1.77;;;;;;;;;;5066444;28;20067;-81
2021/04/25 18:13:10;;;;;;;3.92;1.70;;;;;;;;;;5065747;28;20024;-81
2021/04/25 18:15:36;;;;;;;4.30;1.95;;;;;;;;;;5063457;28;20480;-81
2021/04/25 18:18:02;;;;;;;3.38;1.67;;;;;;;;;;5077702;28;20082;-82
2021/04/25 18:20:28;;;;;;;4.97;2.10;;;;;;;;;;5083071;28;20028;-81
2021/04/25 18:22:54;;;;;;;3.80;2.03;;;;;;;;;;5081496;28;20052;-81
2021/04/25 18:25:20;;;;;;;4.57;2.10;;;;;;;;;;5069206;28;20021;-82
2021/04/25 18:27:46;;;;;;;5.45;1.98;;;;;;;;;;5071881;28;20122;-81
2021/04/25 18:30:13;;;;;;;5.85;2.00;;;;;;;;;;5061792;28;20393;-81
2021/04/25 18:32:40;;;;;;;4.72;2.05;;;;;;;;;;5065164;28;20044;-82
2021/04/25 18:35:10;;;;;;;3.55;1.40;;;;;;;;;;5065777;28;20024;-81
2021/04/25 18:37:37;;;;;;;4.90;2.13;;;;;;;;;;5058456;28;20071;-80
2021/04/25 18:40:04;;;;;;;4.43;2.28;;;;;;;;;;5058863;28;20071;-80
2021/04/25 18:42:33;;;;;;;4.45;2.17;;;;;;;;;;5060860;28;20008;-81
2021/04/25 18:44:59;;;;;;;5.57;2.25;;;;;;;;;;5064507;28;20009;-81
2021/04/25 18:47:24;;;;;;;6.97;2.47;;;;;;;;;;5060108;28;20067;-80
2021/04/25 18:49:50;;;;;;;7.03;3.50;;;;;;;;;;5058901;28;20084;-83
2021/04/25 18:52:16;;;;;;;4.93;2.20;;;;;;;;;;5064372;28;20033;-80
2021/04/25 18:54:46;;;;;;;5.85;3.10;;;;;;;;;;5063923;28;20113;-81
2021/04/25 18:57:12;;;;;;;5.20;2.67;;;;;;;;;;5070092;28;20571;-82
2021/04/25 18:59:37;;;;;;;6.85;2.30;;;;;;;;;;5078900;28;20001;-82
2021/04/25 19:02:03;;;;;;;3.80;1.73;;;;;;;;;;5078637;28;20034;-82
2021/04/25 19:04:29;;;;;;;4.43;2.22;;;;;;;;;;5074751;28;20031;-82
2021/04/25 19:06:54;;;;;;;4.68;1.80;;;;;;;;;;5078793;28;20139;-82
2021/04/25 19:09:20;;;;;;;7.32;2.65;;;;;;;;;;5063967;28;20170;-82
2021/04/25 19:11:46;;;;;;;4.00;2.38;;;;;;;;;;5068242;28;20020;-82
2021/04/25 19:14:13;;;;;;;3.85;1.70;;;;;;;;;;5064191;28;20040;-82
2021/04/25 19:16:39;;;;;;;5.80;1.90;;;;;;;;;;5062862;28;20021;-81
2021/04/25 19:19:05;;;;;;;4.85;2.22;;;;;;;;;;5070736;28;20020;-82
2021/04/25 19:23:50;;;;;;;4.05;1.77;;;;;;;;;;5002841;28;20369;-82
2021/04/25 19:26:16;;;;;;;4.25;2.00;;;;;;;;;;5010314;28;20090;-81
2021/04/25 19:28:42;;;;;;;2.88;1.60;;;;;;;;;;5000841;28;20467;-82
2021/04/25 19:31:14;;;;;;;4.50;1.98;;;;;;;;;;5007963;28;20015;-82
2021/04/25 19:33:40;;;;;;;3.15;1.55;;;;;;;;;;5001858;28;20038;-82
2021/04/25 19:36:06;;;;;;;3.83;1.80;;;;;;;;;;4998135;28;20026;-82
2021/04/25 19:38:32;;;;;;;5.38;2.30;;;;;;;;;;4998284;28;20648;-82
2021/04/25 19:40:58;;;;;;;3.45;1.75;;;;;;;;;;5003154;28;20033;-82
2021/04/25 19:43:23;;;;;;;4.60;1.88;;;;;;;;;;5004314;28;20086;-81
2021/04/25 19:45:49;;;;;;;4.43;1.77;;;;;;;;;;5001815;28;20036;-82